sensor_id;sensor_type;location;lat;lon;timestamp;P1;durP1;ratioP1;P2;durP2;ratioP2
15002;SDS011;7597;53.590;10.020;2023-02-11T00:01:44;42.83;;;22.33;;
15002;SDS011;7597;53.590;10.020;2023-02-11T00:04:11;39.60;;;21.80;;
15002;SDS011;7597;53.590;10.020;2023-02-11T00:06:37;35.57;;;20.73;;
15002;SDS011;7597;53.590;10.020;2023-02-11T00:09:04;39.37;;;20.70;;
15002;SDS011;7597;53.590;10.020;2023-02-11T00:11:31;39.67;;;21.80;;
15002;SDS011;7597;53.590;10.020;2023-02-11T00:13:58;37.53;;;21.80;;
15002;SDS011;7597;53.590;10.020;2023-02-11T00:16:24;36.00;;;20.83;;
15002;SDS011;7597;53.590;10.020;2023-02-11T00:18:52;33.53;;;21.23;;
15002;SDS011;7597;53.590;10.020;2023-02-11T00:21:22;38.57;;;21.93;;
15002;SDS011;7597;53.590;10.020;2023-02-11T00:23:46;36.20;;;21.37;;
15002;SDS011;7597;53.590;10.020;2023-02-11T00:26:14;42.93;;;22.53;;
15002;SDS011;7597;53.590;10.020;2023-02-11T00:28:40;39.63;;;21.57;;
15002;SDS011;7597;53.590;10.020;2023-02-11T00:31:06;40.33;;;21.67;;
15002;SDS011;7597;53.590;10.020;2023-02-11T00:33:33;38.03;;;21.70;;
15002;SDS011;7597;53.590;10.020;2023-02-11T00:36:05;36.03;;;21.30;;
15002;SDS011;7597;53.590;10.020;2023-02-11T00:38:33;38.10;;;22.03;;
15002;SDS011;7597;53.590;10.020;2023-02-11T00:41:04;36.13;;;21.23;;
15002;SDS011;7597;53.590;10.020;2023-02-11T00:43:31;41.13;;;22.67;;
15002;SDS011;7597;53.590;10.020;2023-02-11T00:45:59;40.63;;;22.83;;
15002;SDS011;7597;53.590;10.020;2023-02-11T00:48:26;42.37;;;22.63;;
15002;SDS011;7597;53.590;10.020;2023-02-11T00:50:52;41.40;;;22.17;;
15002;SDS011;7597;53.590;10.020;2023-02-11T00:53:19;46.60;;;23.67;;
15002;SDS011;7597;53.590;10.020;2023-02-11T00:55:45;41.03;;;22.50;;
15002;SDS011;7597;53.590;10.020;2023-02-11T00:58:12;42.50;;;22.33;;
15002;SDS011;7597;53.590;10.020;2023-02-11T01:00:39;43.93;;;24.00;;
15002;SDS011;7597;53.590;10.020;2023-02-11T01:03:05;48.33;;;24.00;;
15002;SDS011;7597;53.590;10.020;2023-02-11T01:05:32;54.67;;;26.13;;
15002;SDS011;7597;53.590;10.020;2023-02-11T01:07:59;44.37;;;24.37;;
15002;SDS011;7597;53.590;10.020;2023-02-11T01:10:26;44.77;;;24.40;;
15002;SDS011;7597;53.590;10.020;2023-02-11T01:12:53;46.77;;;25.27;;
15002;SDS011;7597;53.590;10.020;2023-02-11T01:15:21;49.30;;;26.13;;
15002;SDS011;7597;53.590;10.020;2023-02-11T01:17:48;42.90;;;24.57;;
15002;SDS011;7597;53.590;10.020;2023-02-11T01:20:16;42.30;;;24.53;;
15002;SDS011;7597;53.590;10.020;2023-02-11T01:22:42;47.63;;;24.93;;
15002;SDS011;7597;53.590;10.020;2023-02-11T01:25:09;52.63;;;24.80;;
15002;SDS011;7597;53.590;10.020;2023-02-11T01:27:36;46.80;;;25.27;;
15002;SDS011;7597;53.590;10.020;2023-02-11T01:30:04;54.73;;;26.93;;
15002;SDS011;7597;53.590;10.020;2023-02-11T01:32:32;46.23;;;25.27;;
15002;SDS011;7597;53.590;10.020;2023-02-11T01:34:59;48.53;;;25.80;;
15002;SDS011;7597;53.590;10.020;2023-02-11T01:37:26;50.83;;;26.80;;
15002;SDS011;7597;53.590;10.020;2023-02-11T01:39:52;50.90;;;26.63;;
15002;SDS011;7597;53.590;10.020;2023-02-11T01:42:21;48.73;;;26.17;;
15002;SDS011;7597;53.590;10.020;2023-02-11T01:44:48;44.93;;;25.53;;
15002;SDS011;7597;53.590;10.020;2023-02-11T01:47:13;50.33;;;25.43;;
15002;SDS011;7597;53.590;10.020;2023-02-11T01:49:43;51.33;;;27.23;;
15002;SDS011;7597;53.590;10.020;2023-02-11T01:52:12;49.33;;;27.17;;
15002;SDS011;7597;53.590;10.020;2023-02-11T01:54:41;46.60;;;26.03;;
15002;SDS011;7597;53.590;10.020;2023-02-11T01:57:12;52.20;;;25.63;;
15002;SDS011;7597;53.590;10.020;2023-02-11T01:59:48;48.17;;;25.73;;
15002;SDS011;7597;53.590;10.020;2023-02-11T02:02:31;50.10;;;26.73;;
15002;SDS011;7597;53.590;10.020;2023-02-11T02:04:59;50.30;;;27.80;;
15002;SDS011;7597;53.590;10.020;2023-02-11T02:07:31;49.37;;;27.33;;
15002;SDS011;7597;53.590;10.020;2023-02-11T02:09:58;54.73;;;27.13;;
15002;SDS011;7597;53.590;10.020;2023-02-11T02:12:24;55.17;;;26.53;;
15002;SDS011;7597;53.590;10.020;2023-02-11T02:14:51;52.50;;;27.53;;
15002;SDS011;7597;53.590;10.020;2023-02-11T02:17:23;50.43;;;26.33;;
15002;SDS011;7597;53.590;10.020;2023-02-11T02:19:53;53.63;;;27.70;;
15002;SDS011;7597;53.590;10.020;2023-02-11T02:22:45;59.43;;;28.43;;
15002;SDS011;7597;53.590;10.020;2023-02-11T02:25:17;51.77;;;27.20;;
15002;SDS011;7597;53.590;10.020;2023-02-11T02:27:46;50.43;;;26.80;;
15002;SDS011;7597;53.590;10.020;2023-02-11T02:33:14;48.23;;;25.90;;
15002;SDS011;7597;53.590;10.020;2023-02-11T02:35:50;52.60;;;26.17;;
15002;SDS011;7597;53.590;10.020;2023-02-11T02:38:26;47.20;;;25.13;;
15002;SDS011;7597;53.590;10.020;2023-02-11T02:40:56;53.43;;;25.83;;
15002;SDS011;7597;53.590;10.020;2023-02-11T02:43:25;49.53;;;24.93;;
15002;SDS011;7597;53.590;10.020;2023-02-11T02:45:52;46.63;;;25.20;;
15002;SDS011;7597;53.590;10.020;2023-02-11T02:48:25;50.60;;;24.73;;
15002;SDS011;7597;53.590;10.020;2023-02-11T02:50:58;47.30;;;24.50;;
15002;SDS011;7597;53.590;10.020;2023-02-11T02:53:43;47.87;;;23.87;;
15002;SDS011;7597;53.590;10.020;2023-02-11T02:56:45;38.03;;;22.30;;
15002;SDS011;7597;53.590;10.020;2023-02-11T03:02:09;44.63;;;22.60;;
15002;SDS011;7597;53.590;10.020;2023-02-11T03:04:36;42.63;;;23.07;;
15002;SDS011;7597;53.590;10.020;2023-02-11T03:07:08;41.20;;;22.03;;
15002;SDS011;7597;53.590;10.020;2023-02-11T03:09:36;42.43;;;21.67;;
15002;SDS011;7597;53.590;10.020;2023-02-11T03:12:02;41.13;;;21.80;;
15002;SDS011;7597;53.590;10.020;2023-02-11T03:14:30;42.53;;;21.83;;
15002;SDS011;7597;53.590;10.020;2023-02-11T03:16:58;38.73;;;21.87;;
15002;SDS011;7597;53.590;10.020;2023-02-11T03:19:25;41.67;;;22.47;;
15002;SDS011;7597;53.590;10.020;2023-02-11T03:21:52;47.90;;;23.83;;
15002;SDS011;7597;53.590;10.020;2023-02-11T03:24:21;47.20;;;23.40;;
15002;SDS011;7597;53.590;10.020;2023-02-11T03:26:50;47.07;;;24.23;;
15002;SDS011;7597;53.590;10.020;2023-02-11T03:29:17;44.63;;;22.50;;
15002;SDS011;7597;53.590;10.020;2023-02-11T03:31:55;38.53;;;22.90;;
15002;SDS011;7597;53.590;10.020;2023-02-11T03:34:23;45.23;;;21.20;;
15002;SDS011;7597;53.590;10.020;2023-02-11T03:36:51;42.00;;;21.37;;
15002;SDS011;7597;53.590;10.020;2023-02-11T03:39:18;45.60;;;22.20;;
15002;SDS011;7597;53.590;10.020;2023-02-11T03:41:44;38.85;;;21.33;;
15002;SDS011;7597;53.590;10.020;2023-02-11T03:44:11;45.90;;;21.83;;
15002;SDS011;7597;53.590;10.020;2023-02-11T03:46:38;41.67;;;21.10;;
15002;SDS011;7597;53.590;10.020;2023-02-11T03:49:07;43.10;;;22.20;;
15002;SDS011;7597;53.590;10.020;2023-02-11T03:51:32;42.27;;;20.47;;
15002;SDS011;7597;53.590;10.020;2023-02-11T03:54:01;46.37;;;22.13;;
15002;SDS011;7597;53.590;10.020;2023-02-11T03:56:28;44.80;;;19.83;;
15002;SDS011;7597;53.590;10.020;2023-02-11T03:58:53;41.45;;;20.33;;
15002;SDS011;7597;53.590;10.020;2023-02-11T04:01:20;38.43;;;19.93;;
15002;SDS011;7597;53.590;10.020;2023-02-11T04:03:46;36.10;;;18.80;;
15002;SDS011;7597;53.590;10.020;2023-02-11T04:06:13;40.10;;;18.47;;
15002;SDS011;7597;53.590;10.020;2023-02-11T04:08:40;37.87;;;20.00;;
15002;SDS011;7597;53.590;10.020;2023-02-11T04:11:06;36.78;;;19.23;;
15002;SDS011;7597;53.590;10.020;2023-02-11T04:13:33;36.77;;;17.83;;
15002;SDS011;7597;53.590;10.020;2023-02-11T04:16:00;36.37;;;17.83;;
15002;SDS011;7597;53.590;10.020;2023-02-11T04:18:26;33.67;;;18.20;;
15002;SDS011;7597;53.590;10.020;2023-02-11T04:20:53;36.03;;;17.07;;
15002;SDS011;7597;53.590;10.020;2023-02-11T04:23:20;31.47;;;16.77;;
15002;SDS011;7597;53.590;10.020;2023-02-11T04:25:47;34.78;;;17.00;;
15002;SDS011;7597;53.590;10.020;2023-02-11T04:28:13;33.30;;;16.55;;
15002;SDS011;7597;53.590;10.020;2023-02-11T04:30:40;30.67;;;16.20;;
15002;SDS011;7597;53.590;10.020;2023-02-11T04:33:06;32.63;;;17.43;;
15002;SDS011;7597;53.590;10.020;2023-02-11T04:35:33;34.63;;;16.40;;
15002;SDS011;7597;53.590;10.020;2023-02-11T04:38:00;35.97;;;16.15;;
15002;SDS011;7597;53.590;10.020;2023-02-11T04:40:27;29.93;;;15.27;;
15002;SDS011;7597;53.590;10.020;2023-02-11T04:42:53;27.60;;;15.00;;
15002;SDS011;7597;53.590;10.020;2023-02-11T04:45:20;25.05;;;14.48;;
15002;SDS011;7597;53.590;10.020;2023-02-11T04:47:47;25.77;;;14.48;;
15002;SDS011;7597;53.590;10.020;2023-02-11T04:50:14;36.23;;;15.83;;
15002;SDS011;7597;53.590;10.020;2023-02-11T04:52:42;29.50;;;14.13;;
15002;SDS011;7597;53.590;10.020;2023-02-11T04:55:09;33.67;;;14.63;;
15002;SDS011;7597;53.590;10.020;2023-02-11T04:57:36;30.25;;;14.55;;
15002;SDS011;7597;53.590;10.020;2023-02-11T05:00:03;31.02;;;14.70;;
15002;SDS011;7597;53.590;10.020;2023-02-11T05:02:31;32.93;;;14.70;;
15002;SDS011;7597;53.590;10.020;2023-02-11T05:04:59;35.67;;;15.45;;
15002;SDS011;7597;53.590;10.020;2023-02-11T05:07:27;27.07;;;13.87;;
15002;SDS011;7597;53.590;10.020;2023-02-11T05:09:53;28.90;;;13.67;;
15002;SDS011;7597;53.590;10.020;2023-02-11T05:12:20;30.03;;;14.23;;
15002;SDS011;7597;53.590;10.020;2023-02-11T05:14:47;30.27;;;14.87;;
15002;SDS011;7597;53.590;10.020;2023-02-11T05:17:13;25.37;;;13.53;;
15002;SDS011;7597;53.590;10.020;2023-02-11T05:19:43;29.83;;;15.23;;
15002;SDS011;7597;53.590;10.020;2023-02-11T05:22:09;29.05;;;14.55;;
15002;SDS011;7597;53.590;10.020;2023-02-11T05:24:37;27.57;;;14.23;;
15002;SDS011;7597;53.590;10.020;2023-02-11T05:27:04;32.90;;;14.35;;
15002;SDS011;7597;53.590;10.020;2023-02-11T05:29:31;31.43;;;14.83;;
15002;SDS011;7597;53.590;10.020;2023-02-11T05:31:58;28.83;;;14.27;;
15002;SDS011;7597;53.590;10.020;2023-02-11T05:34:24;27.77;;;14.27;;
15002;SDS011;7597;53.590;10.020;2023-02-11T05:36:51;28.87;;;15.17;;
15002;SDS011;7597;53.590;10.020;2023-02-11T05:39:18;25.43;;;13.83;;
15002;SDS011;7597;53.590;10.020;2023-02-11T05:41:44;27.93;;;14.23;;
15002;SDS011;7597;53.590;10.020;2023-02-11T05:44:11;28.90;;;14.25;;
15002;SDS011;7597;53.590;10.020;2023-02-11T05:46:38;27.20;;;13.63;;
15002;SDS011;7597;53.590;10.020;2023-02-11T05:49:11;32.35;;;13.65;;
15002;SDS011;7597;53.590;10.020;2023-02-11T05:51:39;27.80;;;14.70;;
15002;SDS011;7597;53.590;10.020;2023-02-11T05:54:06;29.10;;;13.83;;
15002;SDS011;7597;53.590;10.020;2023-02-11T05:56:32;25.10;;;13.93;;
15002;SDS011;7597;53.590;10.020;2023-02-11T05:58:59;23.20;;;14.60;;
15002;SDS011;7597;53.590;10.020;2023-02-11T06:01:26;28.03;;;15.17;;
15002;SDS011;7597;53.590;10.020;2023-02-11T06:03:52;25.50;;;15.63;;
15002;SDS011;7597;53.590;10.020;2023-02-11T06:06:19;29.23;;;16.40;;
15002;SDS011;7597;53.590;10.020;2023-02-11T06:08:46;28.83;;;17.87;;
15002;SDS011;7597;53.590;10.020;2023-02-11T06:11:13;28.13;;;17.17;;
15002;SDS011;7597;53.590;10.020;2023-02-11T06:13:39;31.47;;;18.60;;
15002;SDS011;7597;53.590;10.020;2023-02-11T06:16:06;29.08;;;18.90;;
15002;SDS011;7597;53.590;10.020;2023-02-11T06:18:33;33.67;;;18.45;;
15002;SDS011;7597;53.590;10.020;2023-02-11T06:20:59;28.27;;;17.97;;
15002;SDS011;7597;53.590;10.020;2023-02-11T06:23:26;31.33;;;17.33;;
15002;SDS011;7597;53.590;10.020;2023-02-11T06:25:53;27.77;;;16.83;;
15002;SDS011;7597;53.590;10.020;2023-02-11T06:28:19;27.23;;;17.37;;
15002;SDS011;7597;53.590;10.020;2023-02-11T06:30:46;25.80;;;17.10;;
15002;SDS011;7597;53.590;10.020;2023-02-11T06:33:13;28.87;;;17.83;;
15002;SDS011;7597;53.590;10.020;2023-02-11T06:35:39;29.15;;;17.83;;
15002;SDS011;7597;53.590;10.020;2023-02-11T06:38:06;27.62;;;16.55;;
15002;SDS011;7597;53.590;10.020;2023-02-11T06:40:34;29.40;;;17.77;;
15002;SDS011;7597;53.590;10.020;2023-02-11T06:43:01;25.87;;;17.30;;
15002;SDS011;7597;53.590;10.020;2023-02-11T06:45:29;25.88;;;17.62;;
15002;SDS011;7597;53.590;10.020;2023-02-11T06:47:55;28.60;;;17.73;;
15002;SDS011;7597;53.590;10.020;2023-02-11T06:50:22;29.35;;;16.85;;
15002;SDS011;7597;53.590;10.020;2023-02-11T06:52:49;27.60;;;16.35;;
15002;SDS011;7597;53.590;10.020;2023-02-11T06:55:15;20.47;;;13.77;;
15002;SDS011;7597;53.590;10.020;2023-02-11T06:57:42;20.60;;;13.90;;
15002;SDS011;7597;53.590;10.020;2023-02-11T07:00:09;23.77;;;13.87;;
15002;SDS011;7597;53.590;10.020;2023-02-11T07:02:39;22.13;;;13.85;;
15002;SDS011;7597;53.590;10.020;2023-02-11T07:05:05;25.40;;;14.10;;
15002;SDS011;7597;53.590;10.020;2023-02-11T07:07:32;25.27;;;13.33;;
15002;SDS011;7597;53.590;10.020;2023-02-11T07:09:59;23.77;;;12.93;;
15002;SDS011;7597;53.590;10.020;2023-02-11T07:12:26;20.97;;;12.80;;
15002;SDS011;7597;53.590;10.020;2023-02-11T07:14:52;22.13;;;13.33;;
15002;SDS011;7597;53.590;10.020;2023-02-11T07:17:19;22.95;;;13.77;;
15002;SDS011;7597;53.590;10.020;2023-02-11T07:19:46;21.43;;;13.43;;
15002;SDS011;7597;53.590;10.020;2023-02-11T07:22:12;23.13;;;13.33;;
15002;SDS011;7597;53.590;10.020;2023-02-11T07:24:41;23.67;;;12.55;;
15002;SDS011;7597;53.590;10.020;2023-02-11T07:27:08;21.15;;;13.55;;
15002;SDS011;7597;53.590;10.020;2023-02-11T07:29:34;24.23;;;13.85;;
15002;SDS011;7597;53.590;10.020;2023-02-11T07:32:02;21.60;;;13.85;;
15002;SDS011;7597;53.590;10.020;2023-02-11T07:34:29;21.67;;;14.05;;
15002;SDS011;7597;53.590;10.020;2023-02-11T07:36:56;28.42;;;15.07;;
15002;SDS011;7597;53.590;10.020;2023-02-11T07:39:23;24.27;;;14.03;;
15002;SDS011;7597;53.590;10.020;2023-02-11T07:41:54;27.98;;;15.75;;
15002;SDS011;7597;53.590;10.020;2023-02-11T07:44:21;29.60;;;15.55;;
15002;SDS011;7597;53.590;10.020;2023-02-11T07:46:47;28.27;;;16.43;;
15002;SDS011;7597;53.590;10.020;2023-02-11T07:49:15;28.15;;;16.48;;
15002;SDS011;7597;53.590;10.020;2023-02-11T07:51:45;25.67;;;15.88;;
15002;SDS011;7597;53.590;10.020;2023-02-11T07:54:13;29.55;;;15.95;;
15002;SDS011;7597;53.590;10.020;2023-02-11T07:56:40;28.80;;;15.32;;
15002;SDS011;7597;53.590;10.020;2023-02-11T07:59:07;26.30;;;15.40;;
15002;SDS011;7597;53.590;10.020;2023-02-11T08:01:34;25.43;;;14.87;;
15002;SDS011;7597;53.590;10.020;2023-02-11T08:04:00;29.00;;;14.98;;
15002;SDS011;7597;53.590;10.020;2023-02-11T08:06:29;27.05;;;15.13;;
15002;SDS011;7597;53.590;10.020;2023-02-11T08:08:55;28.10;;;15.47;;
15002;SDS011;7597;53.590;10.020;2023-02-11T08:11:24;31.90;;;16.12;;
15002;SDS011;7597;53.590;10.020;2023-02-11T08:13:51;26.23;;;15.00;;
15002;SDS011;7597;53.590;10.020;2023-02-11T08:16:20;29.60;;;15.67;;
15002;SDS011;7597;53.590;10.020;2023-02-11T08:18:47;31.27;;;15.35;;
15002;SDS011;7597;53.590;10.020;2023-02-11T08:21:15;34.55;;;16.73;;
15002;SDS011;7597;53.590;10.020;2023-02-11T08:23:42;27.50;;;14.67;;
15002;SDS011;7597;53.590;10.020;2023-02-11T08:26:12;27.87;;;16.07;;
15002;SDS011;7597;53.590;10.020;2023-02-11T08:28:39;30.40;;;16.27;;
15002;SDS011;7597;53.590;10.020;2023-02-11T08:31:06;32.20;;;16.43;;
15002;SDS011;7597;53.590;10.020;2023-02-11T08:33:33;31.23;;;16.23;;
15002;SDS011;7597;53.590;10.020;2023-02-11T08:36:00;25.05;;;15.10;;
15002;SDS011;7597;53.590;10.020;2023-02-11T08:38:27;29.35;;;15.43;;
15002;SDS011;7597;53.590;10.020;2023-02-11T08:40:53;28.83;;;16.48;;
15002;SDS011;7597;53.590;10.020;2023-02-11T08:43:20;31.83;;;16.25;;
15002;SDS011;7597;53.590;10.020;2023-02-11T08:45:48;29.03;;;15.40;;
15002;SDS011;7597;53.590;10.020;2023-02-11T08:48:15;25.35;;;15.50;;
15002;SDS011;7597;53.590;10.020;2023-02-11T08:50:42;28.17;;;16.17;;
15002;SDS011;7597;53.590;10.020;2023-02-11T08:53:09;24.90;;;14.73;;
15002;SDS011;7597;53.590;10.020;2023-02-11T08:55:35;24.37;;;14.63;;
15002;SDS011;7597;53.590;10.020;2023-02-11T08:58:02;25.15;;;15.18;;
15002;SDS011;7597;53.590;10.020;2023-02-11T09:00:29;24.45;;;14.20;;
15002;SDS011;7597;53.590;10.020;2023-02-11T09:02:57;24.98;;;13.98;;
15002;SDS011;7597;53.590;10.020;2023-02-11T09:05:24;27.87;;;14.38;;
15002;SDS011;7597;53.590;10.020;2023-02-11T09:07:50;29.20;;;14.98;;
15002;SDS011;7597;53.590;10.020;2023-02-11T09:10:19;22.95;;;14.40;;
15002;SDS011;7597;53.590;10.020;2023-02-11T09:12:47;23.67;;;14.35;;
15002;SDS011;7597;53.590;10.020;2023-02-11T09:15:14;25.37;;;13.75;;
15002;SDS011;7597;53.590;10.020;2023-02-11T09:17:40;28.15;;;13.32;;
15002;SDS011;7597;53.590;10.020;2023-02-11T09:20:07;24.90;;;13.30;;
15002;SDS011;7597;53.590;10.020;2023-02-11T09:22:35;27.08;;;13.43;;
15002;SDS011;7597;53.590;10.020;2023-02-11T09:25:04;31.75;;;14.50;;
15002;SDS011;7597;53.590;10.020;2023-02-11T09:27:32;23.08;;;13.93;;
15002;SDS011;7597;53.590;10.020;2023-02-11T09:30:00;22.25;;;12.98;;
15002;SDS011;7597;53.590;10.020;2023-02-11T09:32:26;24.08;;;13.55;;
15002;SDS011;7597;53.590;10.020;2023-02-11T09:34:53;24.05;;;13.32;;
15002;SDS011;7597;53.590;10.020;2023-02-11T09:37:20;24.00;;;13.05;;
15002;SDS011;7597;53.590;10.020;2023-02-11T09:39:47;26.48;;;12.32;;
15002;SDS011;7597;53.590;10.020;2023-02-11T09:43:20;21.92;;;12.13;;
15002;SDS011;7597;53.590;10.020;2023-02-11T09:45:17;26.40;;;12.55;;
15002;SDS011;7597;53.590;10.020;2023-02-11T09:47:46;28.00;;;11.60;;
15002;SDS011;7597;53.590;10.020;2023-02-11T09:50:13;25.90;;;12.20;;
15002;SDS011;7597;53.590;10.020;2023-02-11T09:52:46;25.50;;;11.85;;
15002;SDS011;7597;53.590;10.020;2023-02-11T09:55:19;21.17;;;10.57;;
15002;SDS011;7597;53.590;10.020;2023-02-11T09:57:46;22.77;;;10.07;;
15002;SDS011;7597;53.590;10.020;2023-02-11T10:00:18;22.20;;;10.52;;
15002;SDS011;7597;53.590;10.020;2023-02-11T10:02:50;19.70;;;9.65;;
15002;SDS011;7597;53.590;10.020;2023-02-11T10:05:22;19.45;;;9.65;;
15002;SDS011;7597;53.590;10.020;2023-02-11T10:07:51;21.17;;;9.63;;
15002;SDS011;7597;53.590;10.020;2023-02-11T10:12:59;23.83;;;9.80;;
15002;SDS011;7597;53.590;10.020;2023-02-11T10:15:47;24.55;;;9.32;;
15002;SDS011;7597;53.590;10.020;2023-02-11T10:18:49;22.35;;;9.23;;
15002;SDS011;7597;53.590;10.020;2023-02-11T10:21:06;26.33;;;10.48;;
15002;SDS011;7597;53.590;10.020;2023-02-11T10:26:12;21.10;;;9.93;;
15002;SDS011;7597;53.590;10.020;2023-02-11T10:28:38;23.80;;;9.30;;
15002;SDS011;7597;53.590;10.020;2023-02-11T10:31:06;18.77;;;8.20;;
15002;SDS011;7597;53.590;10.020;2023-02-11T10:33:39;22.20;;;8.57;;
15002;SDS011;7597;53.590;10.020;2023-02-11T10:36:18;19.23;;;8.52;;
15002;SDS011;7597;53.590;10.020;2023-02-11T10:38:44;19.80;;;8.10;;
15002;SDS011;7597;53.590;10.020;2023-02-11T10:41:14;21.92;;;7.55;;
15002;SDS011;7597;53.590;10.020;2023-02-11T10:43:39;17.15;;;8.18;;
15002;SDS011;7597;53.590;10.020;2023-02-11T10:46:06;17.75;;;7.05;;
15002;SDS011;7597;53.590;10.020;2023-02-11T10:48:39;21.98;;;7.68;;
15002;SDS011;7597;53.590;10.020;2023-02-11T10:51:15;17.23;;;7.50;;
15002;SDS011;7597;53.590;10.020;2023-02-11T10:53:40;21.12;;;7.60;;
15002;SDS011;7597;53.590;10.020;2023-02-11T10:56:09;16.23;;;7.47;;
15002;SDS011;7597;53.590;10.020;2023-02-11T10:58:39;15.27;;;7.28;;
15002;SDS011;7597;53.590;10.020;2023-02-11T11:01:02;12.73;;;6.28;;
15002;SDS011;7597;53.590;10.020;2023-02-11T11:03:31;17.50;;;7.07;;
15002;SDS011;7597;53.590;10.020;2023-02-11T11:05:59;14.95;;;5.95;;
15002;SDS011;7597;53.590;10.020;2023-02-11T11:11:12;15.85;;;6.28;;
15002;SDS011;7597;53.590;10.020;2023-02-11T11:13:41;15.77;;;6.07;;
15002;SDS011;7597;53.590;10.020;2023-02-11T11:16:16;14.55;;;6.43;;
15002;SDS011;7597;53.590;10.020;2023-02-11T11:18:44;18.75;;;6.05;;
15002;SDS011;7597;53.590;10.020;2023-02-11T11:21:19;13.73;;;5.50;;
15002;SDS011;7597;53.590;10.020;2023-02-11T11:23:49;19.00;;;7.00;;
15002;SDS011;7597;53.590;10.020;2023-02-11T11:26:16;15.45;;;6.12;;
15002;SDS011;7597;53.590;10.020;2023-02-11T11:29:01;15.40;;;6.60;;
15002;SDS011;7597;53.590;10.020;2023-02-11T11:31:29;14.73;;;6.70;;
15002;SDS011;7597;53.590;10.020;2023-02-11T11:33:56;16.12;;;6.28;;
15002;SDS011;7597;53.590;10.020;2023-02-11T11:36:29;19.77;;;5.90;;
15002;SDS011;7597;53.590;10.020;2023-02-11T11:38:53;10.40;;;5.35;;
15002;SDS011;7597;53.590;10.020;2023-02-11T11:41:23;13.65;;;6.03;;
15002;SDS011;7597;53.590;10.020;2023-02-11T11:43:53;11.32;;;5.03;;
15002;SDS011;7597;53.590;10.020;2023-02-11T11:46:26;12.10;;;4.28;;
15002;SDS011;7597;53.590;10.020;2023-02-11T11:48:55;10.95;;;4.90;;
15002;SDS011;7597;53.590;10.020;2023-02-11T11:51:20;9.65;;;4.62;;
15002;SDS011;7597;53.590;10.020;2023-02-11T11:53:51;13.82;;;5.18;;
15002;SDS011;7597;53.590;10.020;2023-02-11T11:56:20;10.65;;;4.40;;
15002;SDS011;7597;53.590;10.020;2023-02-11T11:58:45;10.55;;;4.93;;
15002;SDS011;7597;53.590;10.020;2023-02-11T12:01:18;10.05;;;4.60;;
15002;SDS011;7597;53.590;10.020;2023-02-11T12:06:38;9.30;;;4.50;;
15002;SDS011;7597;53.590;10.020;2023-02-11T12:12:02;14.93;;;4.50;;
15002;SDS011;7597;53.590;10.020;2023-02-11T12:14:30;10.77;;;5.30;;
15002;SDS011;7597;53.590;10.020;2023-02-11T12:17:13;9.27;;;4.07;;
15002;SDS011;7597;53.590;10.020;2023-02-11T12:23:17;11.05;;;4.43;;
15002;SDS011;7597;53.590;10.020;2023-02-11T12:25:45;7.72;;;4.22;;
15002;SDS011;7597;53.590;10.020;2023-02-11T12:28:16;6.20;;;3.85;;
15002;SDS011;7597;53.590;10.020;2023-02-11T12:30:49;7.62;;;4.10;;
15002;SDS011;7597;53.590;10.020;2023-02-11T12:36:13;8.55;;;4.15;;
15002;SDS011;7597;53.590;10.020;2023-02-11T12:38:50;10.68;;;4.53;;
15002;SDS011;7597;53.590;10.020;2023-02-11T12:43:51;11.50;;;3.90;;
15002;SDS011;7597;53.590;10.020;2023-02-11T12:46:37;10.52;;;3.85;;
15002;SDS011;7597;53.590;10.020;2023-02-11T12:51:58;10.23;;;3.80;;
15002;SDS011;7597;53.590;10.020;2023-02-11T12:54:40;8.88;;;3.53;;
15002;SDS011;7597;53.590;10.020;2023-02-11T12:57:16;7.78;;;3.87;;
15002;SDS011;7597;53.590;10.020;2023-02-11T12:59:54;14.05;;;3.90;;
15002;SDS011;7597;53.590;10.020;2023-02-11T13:02:28;7.18;;;4.37;;
15002;SDS011;7597;53.590;10.020;2023-02-11T13:05:18;10.27;;;4.53;;
15002;SDS011;7597;53.590;10.020;2023-02-11T13:07:57;9.65;;;4.12;;
15002;SDS011;7597;53.590;10.020;2023-02-11T13:13:00;13.20;;;4.60;;
15002;SDS011;7597;53.590;10.020;2023-02-11T13:15:33;7.85;;;4.43;;
15002;SDS011;7597;53.590;10.020;2023-02-11T13:18:01;11.38;;;3.97;;
15002;SDS011;7597;53.590;10.020;2023-02-11T13:20:31;12.75;;;4.32;;
15002;SDS011;7597;53.590;10.020;2023-02-11T13:23:09;10.70;;;4.32;;
15002;SDS011;7597;53.590;10.020;2023-02-11T13:25:37;8.48;;;4.80;;
15002;SDS011;7597;53.590;10.020;2023-02-11T13:28:08;12.37;;;4.28;;
15002;SDS011;7597;53.590;10.020;2023-02-11T13:30:46;14.18;;;4.55;;
15002;SDS011;7597;53.590;10.020;2023-02-11T13:33:18;13.82;;;4.62;;
15002;SDS011;7597;53.590;10.020;2023-02-11T13:35:49;12.30;;;4.40;;
15002;SDS011;7597;53.590;10.020;2023-02-11T13:38:30;13.40;;;5.40;;
15002;SDS011;7597;53.590;10.020;2023-02-11T13:40:58;12.10;;;4.57;;
15002;SDS011;7597;53.590;10.020;2023-02-11T13:43:28;13.68;;;4.87;;
15002;SDS011;7597;53.590;10.020;2023-02-11T13:45:57;17.90;;;6.97;;
15002;SDS011;7597;53.590;10.020;2023-02-11T13:48:29;17.83;;;4.95;;
15002;SDS011;7597;53.590;10.020;2023-02-11T13:51:05;15.57;;;5.35;;
15002;SDS011;7597;53.590;10.020;2023-02-11T13:56:27;13.13;;;5.45;;
15002;SDS011;7597;53.590;10.020;2023-02-11T13:58:53;17.27;;;5.30;;
15002;SDS011;7597;53.590;10.020;2023-02-11T14:09:33;18.70;;;5.82;;
15002;SDS011;7597;53.590;10.020;2023-02-11T14:15:00;22.62;;;5.90;;
15002;SDS011;7597;53.590;10.020;2023-02-11T14:17:26;18.30;;;4.87;;
15002;SDS011;7597;53.590;10.020;2023-02-11T14:19:54;16.90;;;6.20;;
15002;SDS011;7597;53.590;10.020;2023-02-11T14:22:28;17.73;;;6.25;;
15002;SDS011;7597;53.590;10.020;2023-02-11T14:24:58;14.25;;;5.57;;
15002;SDS011;7597;53.590;10.020;2023-02-11T14:27:42;21.15;;;7.25;;
15002;SDS011;7597;53.590;10.020;2023-02-11T14:30:12;13.82;;;5.15;;
15002;SDS011;7597;53.590;10.020;2023-02-11T14:33:05;16.85;;;5.62;;
15002;SDS011;7597;53.590;10.020;2023-02-11T14:35:46;12.32;;;5.20;;
15002;SDS011;7597;53.590;10.020;2023-02-11T14:43:44;17.85;;;7.30;;
15002;SDS011;7597;53.590;10.020;2023-02-11T14:46:11;29.90;;;14.85;;
15002;SDS011;7597;53.590;10.020;2023-02-11T14:48:38;15.15;;;4.80;;
15002;SDS011;7597;53.590;10.020;2023-02-11T14:51:09;17.67;;;4.82;;
15002;SDS011;7597;53.590;10.020;2023-02-11T14:53:45;13.32;;;4.68;;
15002;SDS011;7597;53.590;10.020;2023-02-11T14:56:35;14.30;;;4.57;;
15002;SDS011;7597;53.590;10.020;2023-02-11T14:59:15;16.40;;;4.37;;
15002;SDS011;7597;53.590;10.020;2023-02-11T15:01:56;12.73;;;4.20;;
15002;SDS011;7597;53.590;10.020;2023-02-11T15:07:25;11.35;;;4.15;;
15002;SDS011;7597;53.590;10.020;2023-02-11T15:28:18;12.50;;;3.95;;
15002;SDS011;7597;53.590;10.020;2023-02-11T15:31:01;13.02;;;4.57;;
15002;SDS011;7597;53.590;10.020;2023-02-11T15:33:35;12.45;;;4.43;;
15002;SDS011;7597;53.590;10.020;2023-02-11T16:13:21;26.58;;;10.57;;
15002;SDS011;7597;53.590;10.020;2023-02-11T16:15:50;20.92;;;6.87;;
15002;SDS011;7597;53.590;10.020;2023-02-11T16:21:16;17.65;;;5.70;;
15002;SDS011;7597;53.590;10.020;2023-02-11T16:23:48;23.17;;;9.00;;
15002;SDS011;7597;53.590;10.020;2023-02-11T16:26:26;17.02;;;6.45;;
15002;SDS011;7597;53.590;10.020;2023-02-11T16:29:03;19.33;;;7.25;;
15002;SDS011;7597;53.590;10.020;2023-02-11T16:31:36;19.02;;;8.32;;
15002;SDS011;7597;53.590;10.020;2023-02-11T16:34:16;18.65;;;5.97;;